Time;durP1;ratioP1;P1;durP2;ratioP2;P2;SDS_P1;SDS_P2;PMS_P1;PMS_P2;Temp;Humidity;BMP_temperature;BMP_pressure;BME280_temperature;BME280_humidity;BME280_pressure;Samples;Min_cycle;Max_cycle;Signal;HPM_P1;HPM_P2
2021/05/10 06:50:07;;;;;;;18.00;3.17;;;15.90;99.90;;;;;;12126865;27;20584;-76
2021/05/10 06:55:55;;;;;;;11.43;3.92;;;16.60;99.90;;;;;;12090622;27;20052;-77
2021/05/10 07:01:41;;;;;;;12.15;3.00;;;17.10;99.90;;;;;;12090687;27;20499;-78
2021/05/10 07:07:30;;;;;;;13.27;3.00;;;17.40;99.90;;;;;;12099825;27;20048;-78
2021/05/10 07:13:17;;;;;;;23.55;3.25;;;17.90;99.90;;;;;;12100580;27;20063;-79
2021/05/10 07:19:04;;;;;;;15.18;2.50;;;18.30;99.90;;;;;;12086391;27;20045;-79
2021/05/10 07:24:51;;;;;;;7.82;2.83;;;18.40;99.90;;;;;;12088812;27;20110;-81
2021/05/10 07:30:39;;;;;;;16.10;2.97;;;18.30;99.90;;;;;;12077366;27;20460;-79
2021/05/10 07:36:25;;;;;;;11.45;2.35;;;18.60;99.90;;;;;;12079019;28;20044;-78
2021/05/10 07:42:13;;;;;;;17.40;2.45;;;18.50;99.90;;;;;;12074211;27;20059;-78
2021/05/10 07:48:00;;;;;;;15.80;2.67;;;18.40;99.90;;;;;;12076414;27;20036;-74
2021/05/10 07:53:49;;;;;;;15.80;2.30;;;18.20;99.90;;;;;;12070983;27;20482;-74
2021/05/10 07:59:37;;;;;;;10.55;2.00;;;18.20;99.90;;;;;;12059740;28;20048;-74
2021/05/10 08:05:23;;;;;;;12.40;2.55;;;18.50;99.90;;;;;;12043622;27;20059;-75
2021/05/10 08:11:10;;;;;;;12.15;2.35;;;18.70;99.90;;;;;;12040433;28;20045;-75
2021/05/10 08:16:59;;;;;;;9.57;1.83;;;18.50;99.90;;;;;;12046903;27;20041;-74
2021/05/10 08:22:45;;;;;;;12.52;2.15;;;17.80;99.90;;;;;;12035579;28;20118;-75
2021/05/10 08:28:32;;;;;;;14.50;2.25;;;17.80;99.90;;;;;;12043461;27;20105;-74
2021/05/10 08:34:19;;;;;;;10.75;2.03;;;17.90;99.90;;;;;;12048285;27;20053;-74
2021/05/10 08:40:07;;;;;;;13.52;2.25;;;17.90;99.90;;;;;;12044037;27;20400;-78
2021/05/10 08:45:54;;;;;;;10.52;1.80;;;18.10;99.90;;;;;;12044377;27;20059;-78
2021/05/10 08:51:42;;;;;;;14.18;2.42;;;18.80;99.90;;;;;;12049589;28;20044;-78
2021/05/10 08:57:28;;;;;;;13.63;2.33;;;19.10;99.90;;;;;;12054084;27;20049;-78
2021/05/10 09:03:14;;;;;;;12.35;2.15;;;19.30;99.90;;;;;;12040508;28;20044;-74
2021/05/10 09:09:08;;;;;;;10.85;1.98;;;19.60;99.90;;;;;;12043734;27;20052;-75
2021/05/10 09:14:54;;;;;;;9.35;2.17;;;19.60;96.20;;;;;;12048227;27;20049;-74
2021/05/10 09:20:43;;;;;;;12.02;1.92;;;19.80;96.70;;;;;;12042941;27;20090;-78
2021/05/10 09:26:31;;;;;;;12.73;2.10;;;19.60;96.30;;;;;;12045026;27;20063;-73
2021/05/10 09:32:28;;;;;;;16.73;2.10;;;19.60;96.30;;;;;;12036429;27;20159;-74
2021/05/10 09:38:18;;;;;;;10.73;2.55;;;19.20;95.60;;;;;;12030811;27;20064;-74
2021/05/10 09:44:07;;;;;;;11.85;1.67;;;19.30;95.50;;;;;;12041631;28;20052;-74
2021/05/10 09:49:53;;;;;;;8.38;1.50;;;19.10;92.20;;;;;;12037299;27;20049;-76
2021/05/10 09:55:47;;;;;;;10.68;1.70;;;18.80;94.00;;;;;;12041153;27;20404;-74
2021/05/10 10:01:43;;;;;;;8.52;1.88;;;18.90;94.10;;;;;;12041919;27;20060;-78
2021/05/10 10:07:30;;;;;;;11.50;2.10;;;19.30;94.00;;;;;;12038854;28;20045;-77
2021/05/10 10:13:18;;;;;;;13.52;2.20;;;19.20;92.80;;;;;;12052352;27;20048;-78
2021/05/10 10:19:08;;;;;;;15.02;2.75;;;19.00;92.80;;;;;;12041775;28;20041;-77
2021/05/10 10:24:55;;;;;;;14.52;2.22;;;19.30;93.40;;;;;;12045382;27;20087;-77
2021/05/10 10:30:45;;;;;;;14.45;3.05;;;19.40;92.20;;;;;;12052966;27;20108;-78
2021/05/10 10:36:36;;;;;;;12.93;2.20;;;19.50;91.10;;;;;;12066101;27;20127;-77
2021/05/10 10:42:24;;;;;;;10.40;1.45;;;19.60;88.50;;;;;;12049885;28;20523;-78
2021/05/10 10:48:10;;;;;;;13.10;1.75;;;19.60;87.10;;;;;;12039073;28;20158;-78
2021/05/10 10:53:58;;;;;;;11.50;1.95;;;20.10;86.50;;;;;;12036860;27;20057;-75
2021/05/10 10:59:54;;;;;;;8.50;1.52;;;20.10;83.60;;;;;;12044484;27;20451;-75
2021/05/10 11:05:46;;;;;;;10.52;1.60;;;19.90;81.40;;;;;;12044977;28;20049;-78
2021/05/10 11:11:41;;;;;;;9.85;1.88;;;20.00;84.10;;;;;;12045740;28;20056;-78
2021/05/10 11:17:54;;;;;;;10.48;1.73;;;19.80;82.40;;;;;;12025273;28;20053;-78
2021/05/10 11:23:49;;;;;;;10.95;1.50;;;19.60;82.60;;;;;;12045235;27;20143;-79
2021/05/10 11:29:49;;;;;;;11.60;1.88;;;19.70;83.20;;;;;;12034045;27;20053;-78
2021/05/10 11:35:36;;;;;;;12.77;1.85;;;19.60;85.60;;;;;;12046623;27;20080;-74
2021/05/10 11:41:27;;;;;;;10.90;1.92;;;19.90;81.80;;;;;;12046212;27;20054;-74
2021/05/10 11:47:16;;;;;;;8.63;1.58;;;20.00;81.30;;;;;;12051685;27;20053;-74
2021/05/10 11:53:05;;;;;;;12.52;2.05;;;20.70;77.60;;;;;;12034586;28;20056;-74
2021/05/10 11:58:56;;;;;;;8.90;1.70;;;20.80;76.30;;;;;;12050206;28;20109;-77
2021/05/10 12:04:47;;;;;;;3.92;1.30;;;21.10;75.00;;;;;;12037397;27;20044;-74
2021/05/10 12:10:38;;;;;;;8.30;1.33;;;21.20;70.70;;;;;;12051722;27;20057;-74
2021/05/10 12:16:25;;;;;;;10.45;1.30;;;21.00;72.20;;;;;;12039149;28;20041;-79
2021/05/10 12:22:12;;;;;;;9.05;1.35;;;20.90;72.00;;;;;;12048400;27;20063;-78
2021/05/10 12:28:02;;;;;;;8.50;1.48;;;20.30;75.90;;;;;;12033661;28;20045;-78
2021/05/10 12:33:51;;;;;;;7.68;1.63;;;20.40;76.10;;;;;;12038842;28;20057;-78
2021/05/10 12:39:39;;;;;;;7.82;1.55;;;20.70;76.30;;;;;;12048972;27;20052;-78
2021/05/10 12:45:25;;;;;;;8.23;1.58;;;21.40;74.00;;;;;;12039406;27;20041;-77
2021/05/10 12:51:14;;;;;;;8.68;1.30;;;21.60;71.50;;;;;;12045012;27;20061;-78
2021/05/10 12:57:02;;;;;;;8.05;1.35;;;21.50;69.20;;;;;;12042342;27;20098;-78
2021/05/10 13:02:48;;;;;;;8.73;1.38;;;21.50;69.10;;;;;;12048330;27;20059;-77
2021/05/10 13:08:42;;;;;;;9.80;1.45;;;21.80;65.50;;;;;;12046504;27;20407;-77
2021/05/10 13:14:33;;;;;;;4.55;1.50;;;21.60;65.20;;;;;;12051713;28;20082;-77
2021/05/10 13:20:28;;;;;;;10.30;1.42;;;22.00;66.10;;;;;;12042136;27;20113;-77
2021/05/10 13:32:38;;;;;;;4.25;1.30;;;22.20;64.20;;;;;;12044490;27;20049;-77
2021/05/10 13:38:24;;;;;;;8.23;1.55;;;22.30;64.10;;;;;;12041582;27;20063;-77
2021/05/10 13:44:12;;;;;;;6.13;1.42;;;22.00;64.30;;;;;;12043132;27;20048;-77
2021/05/10 13:50:00;;;;;;;7.65;1.48;;;21.90;65.70;;;;;;12052051;28;20395;-77
2021/05/10 13:55:46;;;;;;;7.95;1.42;;;21.60;67.40;;;;;;12038289;27;20049;-74
2021/05/10 14:01:33;;;;;;;8.73;1.90;;;21.40;66.40;;;;;;12042468;28;20086;-74
2021/05/10 14:07:20;;;;;;;5.50;1.30;;;21.10;67.00;;;;;;12048059;27;20052;-75
2021/05/10 14:13:07;;;;;;;13.65;2.33;;;21.00;67.80;;;;;;12034317;27;20048;-74
2021/05/10 14:18:56;;;;;;;11.02;1.90;;;21.10;76.80;;;;;;12039712;28;20546;-73
2021/05/10 14:24:43;;;;;;;7.63;1.70;;;21.10;81.40;;;;;;12018831;27;20048;-74
2021/05/10 14:30:29;;;;;;;8.52;2.22;;;21.20;82.00;;;;;;12038674;27;20052;-74
2021/05/10 14:36:16;;;;;;;9.60;1.83;;;21.90;86.30;;;;;;12033202;28;20542;-73
2021/05/10 14:42:03;;;;;;;4.68;1.50;;;22.80;75.70;;;;;;12033797;27;20469;-74
2021/05/10 14:47:49;;;;;;;5.07;1.10;;;23.00;67.30;;;;;;12029060;28;20056;-75
2021/05/10 14:53:35;;;;;;;4.22;1.30;;;23.00;66.20;;;;;;12032432;27;20056;-74
2021/05/10 14:59:24;;;;;;;7.40;1.17;;;22.90;67.60;;;;;;12019709;27;20056;-76
2021/05/10 15:05:11;;;;;;;5.15;1.10;;;22.70;61.10;;;;;;12027521;27;20049;-75
2021/05/10 15:10:58;;;;;;;4.43;1.20;;;22.60;62.50;;;;;;12031261;28;20044;-74
2021/05/10 15:16:45;;;;;;;6.50;1.05;;;23.00;59.60;;;;;;12048732;28;20055;-75
2021/05/10 15:22:31;;;;;;;4.90;1.67;;;23.40;58.50;;;;;;12042662;27;20078;-75
2021/05/10 15:28:18;;;;;;;5.10;1.17;;;23.50;58.00;;;;;;12048067;28;20072;-75
2021/05/10 15:34:05;;;;;;;7.50;1.40;;;23.70;58.30;;;;;;12038302;27;20204;-76
2021/05/10 15:39:52;;;;;;;9.68;2.10;;;23.70;61.30;;;;;;12047877;27;20053;-76
2021/05/10 15:45:38;;;;;;;12.63;2.00;;;23.90;64.40;;;;;;12056405;27;20064;-76
2021/05/10 15:51:26;;;;;;;6.05;1.27;;;24.80;61.10;;;;;;12057252;27;20095;-76
2021/05/10 15:57:12;;;;;;;2.97;0.90;;;26.60;57.10;;;;;;12040854;28;20048;-76
2021/05/10 16:02:58;;;;;;;4.13;1.30;;;27.30;53.50;;;;;;12050877;28;20064;-77
2021/05/10 16:08:45;;;;;;;5.28;1.55;;;26.70;54.80;;;;;;12049722;28;20044;-77
2021/05/10 16:14:32;;;;;;;4.00;1.15;;;26.70;53.90;;;;;;12053994;28;20056;-75
2021/05/10 16:20:18;;;;;;;7.53;1.05;;;25.10;55.10;;;;;;12047314;28;20078;-76
2021/05/10 16:26:11;;;;;;;3.78;0.90;;;23.70;58.90;;;;;;12033437;27;20048;-79
2021/05/10 16:31:58;;;;;;;5.35;1.05;;;23.10;60.70;;;;;;12039382;28;20167;-76
2021/05/10 16:38:14;;;;;;;6.70;1.45;;;22.00;65.10;;;;;;12040414;27;20049;-76
2021/05/10 16:44:01;;;;;;;6.25;1.38;;;20.70;71.80;;;;;;12035304;28;20113;-74
2021/05/10 16:49:50;;;;;;;6.35;1.10;;;20.60;73.30;;;;;;12038763;28;20048;-74
2021/05/10 16:55:36;;;;;;;3.47;0.93;;;21.00;74.70;;;;;;12039998;27;20183;-73
2021/05/10 17:01:24;;;;;;;4.05;1.02;;;22.90;72.80;;;;;;12037820;28;20599;-72
2021/05/10 17:07:11;;;;;;;4.10;1.02;;;28.20;58.10;;;;;;12041559;27;20044;-74
2021/05/10 17:12:58;;;;;;;2.20;0.82;;;31.00;48.30;;;;;;12040672;27;20114;-73
2021/05/10 17:18:46;;;;;;;3.22;1.00;;;32.70;44.90;;;;;;12046237;27;20060;-74
2021/05/10 17:24:32;;;;;;;4.25;1.17;;;34.60;42.30;;;;;;12050681;28;20062;-74
2021/05/10 17:30:19;;;;;;;3.40;1.08;;;34.00;41.20;;;;;;12032880;28;20049;-74
2021/05/10 17:36:07;;;;;;;3.35;1.00;;;33.80;40.70;;;;;;12039720;28;20391;-73
2021/05/10 17:41:55;;;;;;;2.35;1.00;;;34.70;40.30;;;;;;12042051;28;20511;-75
2021/05/10 17:47:41;;;;;;;3.53;1.10;;;35.20;38.20;;;;;;12028062;27;20053;-74
2021/05/10 17:53:29;;;;;;;6.97;1.17;;;34.80;37.80;;;;;;12033956;28;20135;-73
2021/05/10 17:59:16;;;;;;;6.45;1.35;;;34.50;38.20;;;;;;12040586;28;20068;-73
2021/05/10 18:05:03;;;;;;;3.97;1.20;;;34.70;38.20;;;;;;12040557;28;20088;-74
2021/05/10 18:10:51;;;;;;;4.20;1.40;;;34.30;39.00;;;;;;12027038;27;20059;-73
2021/05/10 18:16:39;;;;;;;5.70;1.25;;;34.10;40.40;;;;;;12002086;27;20431;-73
2021/05/10 18:22:25;;;;;;;4.25;1.35;;;34.00;40.90;;;;;;12033293;27;20463;-73
2021/05/10 18:28:12;;;;;;;4.60;1.27;;;33.60;41.60;;;;;;12035006;28;20045;-73
2021/05/10 18:33:59;;;;;;;6.50;1.52;;;33.00;42.90;;;;;;12037841;27;20049;-73
2021/05/10 18:39:48;;;;;;;4.40;1.23;;;32.00;44.70;;;;;;12026262;28;20063;-73
2021/05/10 18:45:38;;;;;;;4.95;2.47;;;31.20;45.90;;;;;;12055182;28;20144;-77
2021/05/10 18:51:24;;;;;;;5.90;1.60;;;29.50;48.40;;;;;;12027175;27;20611;-77
2021/05/10 18:57:11;;;;;;;7.63;1.48;;;27.40;51.70;;;;;;12028992;27;20052;-78
2021/05/10 19:03:01;;;;;;;5.97;1.67;;;25.90;55.10;;;;;;12037067;28;20053;-80
2021/05/10 19:08:47;;;;;;;5.63;1.83;;;24.90;57.20;;;;;;12025220;28;20048;-79
2021/05/10 19:14:35;;;;;;;5.55;1.60;;;24.10;59.10;;;;;;12006352;28;20052;-78
2021/05/10 19:20:24;;;;;;;9.30;2.45;;;23.50;61.00;;;;;;12022955;27;20058;-78
2021/05/10 19:26:11;;;;;;;7.40;2.20;;;23.00;63.00;;;;;;12026273;27;20114;-79
2021/05/10 19:31:58;;;;;;;9.60;1.50;;;22.60;64.70;;;;;;12019624;27;20141;-78
2021/05/10 19:37:46;;;;;;;5.47;2.15;;;22.20;66.40;;;;;;12015343;27;20052;-79
2021/05/10 19:43:32;;;;;;;4.95;1.70;;;22.00;68.60;;;;;;12017904;27;20137;-73
2021/05/10 19:49:22;;;;;;;6.40;1.80;;;21.80;69.70;;;;;;12004277;27;20554;-74
2021/05/10 20:01:16;;;;;;;14.52;3.45;;;21.70;70.80;;;;;;12010421;27;20140;-72
2021/05/10 20:07:02;;;;;;;8.75;1.92;;;21.60;71.90;;;;;;12017208;28;20778;-73
2021/05/10 20:12:49;;;;;;;7.22;1.98;;;21.40;72.50;;;;;;12015813;27;20049;-77
2021/05/10 20:18:36;;;;;;;4.63;1.58;;;21.30;73.40;;;;;;12013751;28;20056;-78
2021/05/10 20:24:23;;;;;;;7.38;1.55;;;21.20;74.60;;;;;;12014076;28;20061;-80
2021/05/10 20:30:11;;;;;;;9.82;2.17;;;21.10;74.70;;;;;;12012946;28;20055;-79
2021/05/10 20:35:59;;;;;;;6.43;2.22;;;20.90;75.80;;;;;;12018433;27;20102;-80
2021/05/10 20:41:45;;;;;;;5.72;2.15;;;20.70;76.10;;;;;;12016579;27;20045;-80
2021/05/10 20:47:34;;;;;;;3.30;1.35;;;20.60;77.10;;;;;;12019591;27;20151;-72
2021/05/10 20:53:21;;;;;;;6.00;2.13;;;20.60;77.50;;;;;;12014069;27;20076;-73
2021/05/10 20:59:07;;;;;;;14.00;2.40;;;20.50;77.80;;;;;;12007052;27;20079;-74
2021/05/10 21:04:54;;;;;;;6.00;2.20;;;20.40;78.90;;;;;;12012313;27;20187;-74
2021/05/10 21:10:40;;;;;;;8.07;2.20;;;20.20;79.60;;;;;;12006845;27;20057;-73
2021/05/10 21:16:27;;;;;;;6.15;1.98;;;20.10;79.90;;;;;;12017053;27;20052;-73
2021/05/10 21:22:14;;;;;;;9.75;2.17;;;20.10;80.40;;;;;;12005946;28;20411;-73
2021/05/10 21:28:02;;;;;;;7.18;1.95;;;20.20;80.50;;;;;;11997536;28;20074;-73
2021/05/10 21:33:48;;;;;;;8.00;2.20;;;20.20;80.60;;;;;;11994888;27;20443;-74
2021/05/10 21:39:35;;;;;;;4.85;2.20;;;20.10;80.40;;;;;;11997869;27;20052;-74
2021/05/10 21:45:21;;;;;;;5.75;2.17;;;19.90;80.90;;;;;;12004931;27;20060;-74
2021/05/10 21:51:08;;;;;;;7.53;2.45;;;19.90;81.60;;;;;;12000253;27;20527;-74
2021/05/10 21:56:55;;;;;;;7.32;2.53;;;19.80;81.90;;;;;;11996457;27;20397;-74
2021/05/10 22:02:41;;;;;;;6.70;2.42;;;19.70;81.90;;;;;;12002484;28;20503;-74
2021/05/10 22:08:28;;;;;;;5.75;2.28;;;19.70;82.00;;;;;;12000602;27;20084;-73
2021/05/10 22:14:15;;;;;;;6.88;1.92;;;19.50;82.40;;;;;;12004115;27;20056;-73
2021/05/10 22:20:02;;;;;;;10.75;2.40;;;19.50;82.90;;;;;;12009476;27;20055;-74
2021/05/10 22:25:57;;;;;;;7.03;2.40;;;19.30;83.60;;;;;;12001233;27;20168;-73
2021/05/10 22:31:44;;;;;;;7.38;1.95;;;19.20;83.60;;;;;;11998923;28;20048;-74
2021/05/10 22:37:38;;;;;;;6.53;2.28;;;19.10;83.60;;;;;;11998228;27;20698;-74
2021/05/10 22:43:39;;;;;;;7.45;2.35;;;18.90;84.30;;;;;;11994274;28;20075;-74
2021/05/10 23:07:49;;;;;;;4.32;1.50;;;18.60;84.60;;;;;;12029096;27;20448;-73
2021/05/10 23:14:03;;;;;;;5.43;1.90;;;18.60;85.00;;;;;;12028134;27;20115;-75
2021/05/10 23:19:49;;;;;;;5.68;2.00;;;18.60;84.40;;;;;;12028936;27;20052;-73
2021/05/10 23:25:38;;;;;;;9.38;1.83;;;18.50;85.00;;;;;;12030460;27;20485;-73
2021/05/10 23:31:24;;;;;;;6.35;1.83;;;18.30;85.60;;;;;;12032772;27;20400;-74
2021/05/10 23:37:10;;;;;;;4.50;1.73;;;18.20;86.20;;;;;;12029747;27;20110;-74
2021/05/10 23:42:58;;;;;;;9.00;1.80;;;18.20;85.80;;;;;;12032257;27;20507;-74
2021/05/10 23:48:44;;;;;;;6.47;1.75;;;18.00;86.10;;;;;;12033124;28;20714;-74
2021/05/10 23:54:30;;;;;;;6.20;1.58;;;17.90;86.30;;;;;;12039351;27;20044;-74
